Time;durP1;ratioP1;P1;durP2;ratioP2;P2;SDS_P1;SDS_P2;PMS_P1;PMS_P2;Temp;Humidity;BMP_temperature;BMP_pressure;BME280_temperature;BME280_humidity;BME280_pressure;Samples;Min_cycle;Max_cycle;Signal;HPM_P1;HPM_P2
2021/11/28 00:02:05;;;;;;;;;0.33;0.33;;;;;;;;4883890;29;45446;-87
2021/11/28 00:04:31;;;;;;;;;1.00;1.00;;;;;;;;4882306;29;46801;-87
2021/11/28 00:14:37;;;;;;;;;1.00;1.00;;;;;;;;4845801;29;45377;-87
2021/11/28 00:17:02;;;;;;;;;1.33;1.33;;;;;;;;4830785;29;45280;-87
2021/11/28 00:19:30;;;;;;;;;1.00;1.00;;;;;;;;4832490;29;45289;-87
2021/11/28 00:21:55;;;;;;;;;2.00;1.00;;;;;;;;4848823;29;45594;-87
2021/11/28 00:24:21;;;;;;;;;3.67;1.67;;;;;;;;4831288;29;48015;-87
2021/11/28 00:26:47;;;;;;;;;1.00;1.00;;;;;;;;4847219;29;45451;-86
2021/11/28 00:29:13;;;;;;;;;1.00;1.00;;;;;;;;4830778;29;45424;-86
2021/11/28 00:31:39;;;;;;;;;2.00;2.00;;;;;;;;4830227;29;45433;-86
2021/11/28 00:34:04;;;;;;;;;3.00;2.00;;;;;;;;4829737;29;47275;-87
2021/11/28 00:36:30;;;;;;;;;4.00;1.33;;;;;;;;4830495;29;45655;-86
2021/11/28 00:38:55;;;;;;;;;1.67;1.67;;;;;;;;4831063;29;44875;-86
2021/11/28 00:41:20;;;;;;;;;2.00;2.00;;;;;;;;4847394;29;45293;-87
2021/11/28 00:43:45;;;;;;;;;1.67;1.67;;;;;;;;4830419;29;48450;-87
2021/11/28 00:46:11;;;;;;;;;3.00;2.00;;;;;;;;4831380;29;45290;-87
2021/11/28 00:48:38;;;;;;;;;3.00;2.00;;;;;;;;4831980;29;45266;-87
2021/11/28 00:53:48;;;;;;;;;1.00;1.00;;;;;;;;4884769;29;45358;-88
2021/11/28 00:56:13;;;;;;;;;1.00;1.00;;;;;;;;4869968;29;45407;-87
2021/11/28 00:58:38;;;;;;;;;1.00;1.00;;;;;;;;4871747;29;45106;-87
2021/11/28 01:01:04;;;;;;;;;5.00;2.00;;;;;;;;4872476;29;44824;-87
2021/11/28 01:03:29;;;;;;;;;0.67;0.67;;;;;;;;4872569;29;47055;-88
2021/11/28 01:05:54;;;;;;;;;1.00;1.00;;;;;;;;4872427;29;44854;-87
2021/11/28 01:08:20;;;;;;;;;1.00;1.00;;;;;;;;4872641;29;45321;-86
2021/11/28 01:10:47;;;;;;;;;1.00;1.00;;;;;;;;4870622;29;45562;-87
2021/11/28 01:13:12;;;;;;;;;1.00;1.00;;;;;;;;4869790;29;47320;-88
2021/11/28 01:15:37;;;;;;;;;2.00;2.00;;;;;;;;4886099;29;45573;-87
2021/11/28 01:18:03;;;;;;;;;1.00;1.00;;;;;;;;4884386;29;44850;-87
2021/11/28 01:20:28;;;;;;;;;1.00;1.00;;;;;;;;4885286;29;45499;-87
2021/11/28 01:22:53;;;;;;;;;2.00;2.00;;;;;;;;4883272;29;47172;-87
2021/11/28 01:25:19;;;;;;;;;3.00;2.00;;;;;;;;4883287;29;45336;-87
2021/11/28 01:27:45;;;;;;;;;0.00;0.00;;;;;;;;4884674;29;45393;-87
2021/11/28 01:30:10;;;;;;;;;0.33;0.33;;;;;;;;4887414;29;45450;-88
2021/11/28 01:32:36;;;;;;;;;2.00;0.33;;;;;;;;4887002;29;47010;-87
2021/11/28 01:35:03;;;;;;;;;0.00;0.00;;;;;;;;4887829;29;45316;-87
2021/11/28 01:37:28;;;;;;;;;2.33;1.33;;;;;;;;4885845;29;45341;-87
2021/11/28 01:39:53;;;;;;;;;2.00;2.00;;;;;;;;4886594;29;45715;-87
2021/11/28 01:42:34;;;;;;;;;2.67;1.00;;;;;;;;4885833;29;48225;-87
2021/11/28 01:44:59;;;;;;;;;0.00;0.00;;;;;;;;4884182;29;45344;-87
2021/11/28 01:47:24;;;;;;;;;1.00;1.00;;;;;;;;4884897;29;45363;-87
2021/11/28 01:49:50;;;;;;;;;1.00;1.00;;;;;;;;4883814;29;45510;-87
2021/11/28 01:52:16;;;;;;;;;1.00;1.00;;;;;;;;4879645;29;47082;-87
2021/11/28 01:55:01;;;;;;;;;2.00;1.00;;;;;;;;4864617;29;45410;-87
2021/11/28 01:57:26;;;;;;;;;1.33;1.00;;;;;;;;4881308;29;45333;-87
2021/11/28 01:59:52;;;;;;;;;3.00;1.33;;;;;;;;4880062;29;45503;-87
2021/11/28 02:02:17;;;;;;;;;1.67;1.67;;;;;;;;4868227;29;47092;-84
2021/11/28 02:04:43;;;;;;;;;1.33;0.67;;;;;;;;4882100;29;45922;-84
2021/11/28 02:07:15;;;;;;;;;0.67;0.67;;;;;;;;4883311;29;45469;-85
2021/11/28 02:09:40;;;;;;;;;2.00;1.00;;;;;;;;4866402;29;45661;-83
2021/11/28 02:12:06;;;;;;;;;0.67;0.67;;;;;;;;4880926;29;47022;-84
2021/11/28 02:14:32;;;;;;;;;1.33;1.00;;;;;;;;4884698;28;46260;-85
2021/11/28 02:16:57;;;;;;;;;0.67;0.67;;;;;;;;4867955;29;45392;-85
2021/11/28 02:19:22;;;;;;;;;0.67;0.67;;;;;;;;4881389;29;45279;-85
2021/11/28 02:21:47;;;;;;;;;1.00;1.00;;;;;;;;4866144;29;45530;-85
2021/11/28 02:24:13;;;;;;;;;1.00;1.00;;;;;;;;4868321;29;45411;-84
2021/11/28 02:30:01;;;;;;;;;0.00;0.00;;;;;;;;4869116;29;45329;-84
2021/11/28 02:32:26;;;;;;;;;3.67;1.33;;;;;;;;4885616;29;47375;-85
2021/11/28 02:34:52;;;;;;;;;1.00;1.00;;;;;;;;4872434;29;45347;-85
2021/11/28 02:37:17;;;;;;;;;3.00;1.00;;;;;;;;4886104;29;45415;-85
2021/11/28 02:39:42;;;;;;;;;2.00;2.00;;;;;;;;4886295;29;45274;-85
2021/11/28 02:42:10;;;;;;;;;1.00;0.00;;;;;;;;4871485;29;45719;-85
2021/11/28 02:44:35;;;;;;;;;1.00;1.00;;;;;;;;4885991;29;45533;-85
2021/11/28 02:47:02;;;;;;;;;1.00;0.00;;;;;;;;4870682;29;45774;-85
2021/11/28 02:49:27;;;;;;;;;0.00;0.00;;;;;;;;4885272;29;45668;-84
2021/11/28 02:51:53;;;;;;;;;2.33;1.00;;;;;;;;4885208;29;47596;-84
2021/11/28 02:54:20;;;;;;;;;0.67;0.67;;;;;;;;4870751;29;45413;-85
2021/11/28 02:56:46;;;;;;;;;1.00;1.00;;;;;;;;4871592;29;45820;-84
2021/11/28 02:59:11;;;;;;;;;1.00;1.00;;;;;;;;4873562;29;45360;-84
2021/11/28 03:01:37;;;;;;;;;0.00;0.00;;;;;;;;4871340;29;46840;-85
2021/11/28 03:04:02;;;;;;;;;1.67;0.67;;;;;;;;4871027;29;45356;-85
2021/11/28 03:09:31;;;;;;;;;0.00;0.00;;;;;;;;4872209;29;45332;-84
2021/11/28 03:11:57;;;;;;;;;0.00;0.00;;;;;;;;4870424;29;47032;-85
2021/11/28 03:14:22;;;;;;;;;0.00;0.00;;;;;;;;4871661;29;45768;-85
2021/11/28 03:16:47;;;;;;;;;0.00;0.00;;;;;;;;4872698;29;45705;-84
2021/11/28 03:19:13;;;;;;;;;0.67;0.67;;;;;;;;4873700;29;45330;-85
2021/11/28 03:21:41;;;;;;;;;0.00;0.00;;;;;;;;4872821;29;47402;-85
2021/11/28 03:24:06;;;;;;;;;0.00;0.00;;;;;;;;4868863;29;45409;-85
2021/11/28 03:26:39;;;;;;;;;0.00;0.00;;;;;;;;4869227;29;45423;-85
2021/11/28 03:29:09;;;;;;;;;0.67;0.67;;;;;;;;4869478;29;45546;-85
2021/11/28 03:31:36;;;;;;;;;0.67;0.67;;;;;;;;4868886;29;47124;-85
2021/11/28 03:34:02;;;;;;;;;0.00;0.00;;;;;;;;4868062;29;45407;-84
2021/11/28 03:36:29;;;;;;;;;0.00;0.00;;;;;;;;4869453;29;45298;-85
2021/11/28 03:38:55;;;;;;;;;0.00;0.00;;;;;;;;4868162;29;45421;-85
2021/11/28 03:41:21;;;;;;;;;2.00;0.67;;;;;;;;4882599;29;48181;-85
2021/11/28 03:43:46;;;;;;;;;1.00;0.00;;;;;;;;4867470;29;45505;-85
2021/11/28 03:46:11;;;;;;;;;0.00;0.00;;;;;;;;4868722;29;45480;-85
2021/11/28 03:48:37;;;;;;;;;0.33;0.00;;;;;;;;4868542;29;45419;-85
2021/11/28 03:51:02;;;;;;;;;0.00;0.00;;;;;;;;4882121;29;46840;-85
2021/11/28 03:53:28;;;;;;;;;2.00;1.00;;;;;;;;4868278;29;45406;-86
2021/11/28 03:55:53;;;;;;;;;0.67;0.00;;;;;;;;4868362;29;45481;-85
2021/11/28 03:58:19;;;;;;;;;0.00;0.00;;;;;;;;4883462;29;45530;-86
2021/11/28 04:00:45;;;;;;;;;2.00;0.33;;;;;;;;4870146;29;46239;-86
2021/11/28 04:03:11;;;;;;;;;0.00;0.00;;;;;;;;4868014;29;45494;-85
2021/11/28 04:05:37;;;;;;;;;0.00;0.00;;;;;;;;4867015;29;45315;-85
2021/11/28 04:08:03;;;;;;;;;0.00;0.00;;;;;;;;4868809;29;45387;-85
2021/11/28 04:10:28;;;;;;;;;0.00;0.00;;;;;;;;4866863;29;48109;-86
2021/11/28 04:12:53;;;;;;;;;1.00;1.00;;;;;;;;4868087;29;45259;-86
2021/11/28 04:15:18;;;;;;;;;2.33;2.00;;;;;;;;4869125;29;45632;-85
2021/11/28 04:17:44;;;;;;;;;2.00;1.00;;;;;;;;4870350;29;45378;-86
2021/11/28 04:20:09;;;;;;;;;1.00;1.00;;;;;;;;4867239;29;48687;-85
2021/11/28 04:22:35;;;;;;;;;0.33;0.33;;;;;;;;4868335;29;45307;-85
2021/11/28 04:25:00;;;;;;;;;0.33;0.33;;;;;;;;4868697;29;45454;-85
2021/11/28 04:27:26;;;;;;;;;1.00;1.00;;;;;;;;4866787;29;45433;-85
2021/11/28 04:29:51;;;;;;;;;2.00;2.00;;;;;;;;4868016;29;45888;-85
2021/11/28 04:32:18;;;;;;;;;0.00;0.00;;;;;;;;4868367;29;45450;-85
2021/11/28 04:34:43;;;;;;;;;0.00;0.00;;;;;;;;4867903;29;45452;-86
2021/11/28 04:37:09;;;;;;;;;1.00;1.00;;;;;;;;4867949;29;45737;-86
2021/11/28 04:39:35;;;;;;;;;1.67;1.00;;;;;;;;4868259;29;46698;-85
2021/11/28 04:42:00;;;;;;;;;1.00;1.00;;;;;;;;4868516;29;45805;-86
2021/11/28 04:47:30;;;;;;;;;0.33;0.33;;;;;;;;4872100;29;45380;-86
2021/11/28 04:49:55;;;;;;;;;1.00;1.00;;;;;;;;4869303;29;47256;-86
2021/11/28 04:52:20;;;;;;;;;0.00;0.00;;;;;;;;4883949;29;45375;-86
2021/11/28 04:54:46;;;;;;;;;0.00;0.00;;;;;;;;4887590;29;45625;-86
2021/11/28 04:57:11;;;;;;;;;0.00;0.00;;;;;;;;4885554;29;45678;-86
2021/11/28 04:59:36;;;;;;;;;1.00;1.00;;;;;;;;4870604;29;46748;-85
2021/11/28 05:02:01;;;;;;;;;0.67;0.67;;;;;;;;4873161;29;45670;-85
2021/11/28 05:04:27;;;;;;;;;0.00;0.00;;;;;;;;4872805;29;45150;-84
2021/11/28 05:06:52;;;;;;;;;1.00;0.00;;;;;;;;4871581;29;45538;-85
2021/11/28 05:09:17;;;;;;;;;1.67;1.67;;;;;;;;4890236;29;45484;-85
2021/11/28 05:11:43;;;;;;;;;1.00;1.00;;;;;;;;4903325;29;45394;-83
2021/11/28 05:14:08;;;;;;;;;0.67;0.00;;;;;;;;4890040;29;45399;-84
2021/11/28 05:16:33;;;;;;;;;2.00;1.00;;;;;;;;4874213;29;45381;-84
2021/11/28 05:18:59;;;;;;;;;0.67;0.67;;;;;;;;4887536;29;46334;-84
2021/11/28 05:21:24;;;;;;;;;1.00;1.00;;;;;;;;4869481;29;45455;-85
2021/11/28 05:23:49;;;;;;;;;1.33;1.33;;;;;;;;4901317;29;45402;-85
2021/11/28 05:26:15;;;;;;;;;3.33;1.00;;;;;;;;4904527;29;45398;-86
2021/11/28 05:28:40;;;;;;;;;1.00;1.00;;;;;;;;4871458;29;47297;-85
2021/11/28 05:31:05;;;;;;;;;1.33;1.33;;;;;;;;4888464;29;45595;-85
2021/11/28 05:33:30;;;;;;;;;0.00;0.00;;;;;;;;4870215;29;45460;-85
2021/11/28 05:35:56;;;;;;;;;2.00;2.00;;;;;;;;4901591;29;45526;-85
2021/11/28 05:38:21;;;;;;;;;1.67;1.67;;;;;;;;4902809;29;48467;-85
2021/11/28 05:40:46;;;;;;;;;0.00;0.00;;;;;;;;4889131;29;45682;-85
2021/11/28 05:43:12;;;;;;;;;0.00;0.00;;;;;;;;4872035;29;45455;-85
2021/11/28 05:45:37;;;;;;;;;1.00;1.00;;;;;;;;4902810;29;45639;-85
2021/11/28 05:48:03;;;;;;;;;1.00;1.00;;;;;;;;4902087;29;47808;-85
2021/11/28 05:50:29;;;;;;;;;1.00;1.00;;;;;;;;4884916;29;45575;-84
2021/11/28 05:52:55;;;;;;;;;1.33;1.00;;;;;;;;4887102;29;45371;-85
2021/11/28 05:55:22;;;;;;;;;0.00;0.00;;;;;;;;4901821;29;45457;-85
2021/11/28 05:57:47;;;;;;;;;0.00;0.00;;;;;;;;4870286;29;45290;-85
2021/11/28 06:00:14;;;;;;;;;0.67;0.00;;;;;;;;4887061;29;45414;-84
2021/11/28 06:02:39;;;;;;;;;1.33;1.00;;;;;;;;4871135;29;45447;-85
2021/11/28 06:05:05;;;;;;;;;2.33;2.33;;;;;;;;4871479;29;45562;-85
2021/11/28 06:10:33;;;;;;;;;1.33;1.33;;;;;;;;4891624;29;45309;-85
2021/11/28 06:12:58;;;;;;;;;10.00;8.33;;;;;;;;4905615;29;45282;-85
2021/11/28 06:15:23;;;;;;;;;12.33;9.67;;;;;;;;4892223;29;45335;-84
2021/11/28 06:17:49;;;;;;;;;8.33;6.00;;;;;;;;4903733;29;47040;-85
2021/11/28 06:20:14;;;;;;;;;5.67;5.67;;;;;;;;4903573;29;45647;-84
2021/11/28 06:22:39;;;;;;;;;0.33;0.33;;;;;;;;4888636;29;45422;-86
2021/11/28 06:25:05;;;;;;;;;0.67;0.67;;;;;;;;4888532;29;45681;-85
2021/11/28 06:27:31;;;;;;;;;0.33;0.33;;;;;;;;4871476;29;47919;-85
2021/11/28 06:29:56;;;;;;;;;1.67;1.67;;;;;;;;4902659;29;45621;-86
2021/11/28 06:32:21;;;;;;;;;0.00;0.00;;;;;;;;4889058;29;44883;-85
2021/11/28 06:34:47;;;;;;;;;1.33;1.00;;;;;;;;4905860;29;45351;-85
2021/11/28 06:37:12;;;;;;;;;1.00;1.00;;;;;;;;4872062;29;46671;-84
2021/11/28 06:39:37;;;;;;;;;1.00;1.00;;;;;;;;4904461;29;45545;-85
2021/11/28 06:42:03;;;;;;;;;0.00;0.00;;;;;;;;4902839;29;45883;-84
2021/11/28 06:44:28;;;;;;;;;0.00;0.00;;;;;;;;4874049;29;45530;-85
2021/11/28 06:46:53;;;;;;;;;1.00;1.00;;;;;;;;4905951;28;46617;-85
2021/11/28 06:49:19;;;;;;;;;0.00;0.00;;;;;;;;4906371;28;45656;-84
2021/11/28 06:51:44;;;;;;;;;2.67;2.67;;;;;;;;4903809;29;45692;-85
2021/11/28 06:54:09;;;;;;;;;2.00;0.67;;;;;;;;4900620;29;45456;-85
2021/11/28 06:56:35;;;;;;;;;1.00;1.00;;;;;;;;4869586;29;46246;-85
2021/11/28 06:59:00;;;;;;;;;1.00;1.00;;;;;;;;4869375;29;45791;-85
2021/11/28 07:01:26;;;;;;;;;3.33;2.00;;;;;;;;4900291;29;45427;-85
2021/11/28 07:03:51;;;;;;;;;2.00;2.00;;;;;;;;4882726;29;44816;-85
2021/11/28 07:06:17;;;;;;;;;2.00;2.00;;;;;;;;4883376;29;46948;-85
2021/11/28 07:08:42;;;;;;;;;0.00;0.00;;;;;;;;4881498;29;45347;-85
2021/11/28 07:11:07;;;;;;;;;0.00;0.00;;;;;;;;4860448;29;45280;-85
2021/11/28 07:13:34;;;;;;;;;1.67;0.67;;;;;;;;4870701;29;45462;-85
2021/11/28 07:15:59;;;;;;;;;0.00;0.00;;;;;;;;4855111;29;46830;-85
2021/11/28 07:18:24;;;;;;;;;1.00;1.00;;;;;;;;4857175;29;45654;-84
2021/11/28 07:20:49;;;;;;;;;1.00;1.00;;;;;;;;4857082;29;45340;-84
2021/11/28 07:23:15;;;;;;;;;1.33;1.33;;;;;;;;4871306;29;45313;-83
2021/11/28 07:25:40;;;;;;;;;0.00;0.00;;;;;;;;4852841;29;46960;-84
2021/11/28 07:28:05;;;;;;;;;0.00;0.00;;;;;;;;4853276;29;45524;-84
2021/11/28 07:30:31;;;;;;;;;0.33;0.33;;;;;;;;4853475;29;45471;-84
2021/11/28 07:32:57;;;;;;;;;0.33;0.33;;;;;;;;4872360;29;45430;-85
2021/11/28 07:35:23;;;;;;;;;0.00;0.00;;;;;;;;4854679;29;47588;-85
2021/11/28 07:37:48;;;;;;;;;1.00;1.00;;;;;;;;4871641;29;45454;-85
2021/11/28 07:40:14;;;;;;;;;1.00;1.00;;;;;;;;4854525;29;45439;-85
2021/11/28 07:42:40;;;;;;;;;1.00;0.00;;;;;;;;4854920;29;45531;-85
2021/11/28 07:45:07;;;;;;;;;3.00;1.00;;;;;;;;4872157;29;45669;-85
2021/11/28 07:47:33;;;;;;;;;0.67;0.67;;;;;;;;4851577;29;45637;-85
2021/11/28 07:49:59;;;;;;;;;1.33;0.00;;;;;;;;4870406;29;45352;-85
2021/11/28 07:52:24;;;;;;;;;1.00;1.00;;;;;;;;4852230;29;44840;-84
2021/11/28 07:54:50;;;;;;;;;1.67;0.00;;;;;;;;4888157;29;45395;-85
2021/11/28 07:57:15;;;;;;;;;3.00;1.00;;;;;;;;4871839;29;45518;-85
2021/11/28 07:59:40;;;;;;;;;2.00;2.00;;;;;;;;4871028;29;45376;-85
2021/11/28 08:02:05;;;;;;;;;3.00;1.67;;;;;;;;4872844;29;45465;-85
2021/11/28 08:04:31;;;;;;;;;1.67;1.00;;;;;;;;4874125;29;46954;-84
2021/11/28 08:06:56;;;;;;;;;1.00;1.00;;;;;;;;4872717;29;45390;-85
2021/11/28 08:09:28;;;;;;;;;0.00;0.00;;;;;;;;4870447;29;45442;-85
2021/11/28 08:11:53;;;;;;;;;1.67;1.67;;;;;;;;4889662;29;45458;-85
2021/11/28 08:14:19;;;;;;;;;2.00;1.00;;;;;;;;4869709;29;48370;-85
2021/11/28 08:16:44;;;;;;;;;1.00;1.00;;;;;;;;4869527;29;45684;-84
2021/11/28 08:19:14;;;;;;;;;1.00;1.00;;;;;;;;4871326;29;44826;-84
2021/11/28 08:21:41;;;;;;;;;1.00;1.00;;;;;;;;4871752;29;45483;-86
2021/11/28 08:24:07;;;;;;;;;1.33;1.33;;;;;;;;4888388;29;46493;-84
2021/11/28 08:26:35;;;;;;;;;1.00;1.00;;;;;;;;4869787;29;45360;-85
2021/11/28 08:29:01;;;;;;;;;1.33;1.33;;;;;;;;4872236;29;45387;-85
2021/11/28 08:31:33;;;;;;;;;2.67;1.00;;;;;;;;4890783;29;45501;-85
2021/11/28 08:33:58;;;;;;;;;1.00;1.00;;;;;;;;4873936;29;47737;-85
2021/11/28 08:36:23;;;;;;;;;1.00;1.00;;;;;;;;4874249;29;45387;-84
2021/11/28 08:38:49;;;;;;;;;3.00;2.00;;;;;;;;4890713;29;45698;-85
2021/11/28 08:41:15;;;;;;;;;0.33;0.33;;;;;;;;4871257;29;45908;-85
2021/11/28 08:43:41;;;;;;;;;1.00;1.00;;;;;;;;4871091;29;45538;-85
2021/11/28 08:46:08;;;;;;;;;2.00;2.00;;;;;;;;4870549;29;46170;-85
2021/11/28 08:48:34;;;;;;;;;5.00;2.00;;;;;;;;4886744;29;45450;-85
2021/11/28 08:50:59;;;;;;;;;2.00;2.00;;;;;;;;4887670;29;45482;-84
2021/11/28 08:53:25;;;;;;;;;2.67;2.67;;;;;;;;4872216;29;47140;-84
2021/11/28 08:55:50;;;;;;;;;2.33;1.00;;;;;;;;4869572;29;45445;-84
2021/11/28 08:58:16;;;;;;;;;2.00;2.00;;;;;;;;4871015;29;45431;-85
2021/11/28 09:00:41;;;;;;;;;4.33;2.33;;;;;;;;4871920;29;45336;-85
2021/11/28 09:03:06;;;;;;;;;1.00;1.00;;;;;;;;4870041;29;46967;-86
2021/11/28 09:05:33;;;;;;;;;1.67;1.67;;;;;;;;4869942;29;44875;-85
2021/11/28 09:08:00;;;;;;;;;1.67;1.67;;;;;;;;4887099;29;45419;-85
2021/11/28 09:10:26;;;;;;;;;1.67;1.00;;;;;;;;4862015;29;45441;-84
2021/11/28 09:12:51;;;;;;;;;4.33;2.67;;;;;;;;4881293;29;45509;-85
2021/11/28 09:15:17;;;;;;;;;0.00;0.00;;;;;;;;4869826;29;45447;-85
2021/11/28 09:17:56;;;;;;;;;3.00;2.00;;;;;;;;4869368;29;45477;-85
2021/11/28 09:20:25;;;;;;;;;2.00;1.00;;;;;;;;4869263;29;45844;-85
2021/11/28 09:25:17;;;;;;;;;1.00;1.00;;;;;;;;4887435;29;45519;-85
2021/11/28 09:27:44;;;;;;;;;7.33;4.33;;;;;;;;4869656;29;45440;-86
2021/11/28 09:30:10;;;;;;;;;2.67;2.67;;;;;;;;4886605;29;45460;-86
2021/11/28 09:32:35;;;;;;;;;3.00;0.00;;;;;;;;4885634;29;46017;-86
2021/11/28 09:35:00;;;;;;;;;2.00;1.00;;;;;;;;4886058;29;45455;-86
2021/11/28 09:37:25;;;;;;;;;1.00;1.00;;;;;;;;4887317;29;44765;-86
2021/11/28 09:39:52;;;;;;;;;4.67;2.00;;;;;;;;4869801;29;45652;-86
2021/11/28 09:42:21;;;;;;;;;1.00;1.00;;;;;;;;4870169;29;47498;-86
2021/11/28 09:44:47;;;;;;;;;1.00;0.00;;;;;;;;4869138;29;45729;-85
2021/11/28 09:47:12;;;;;;;;;4.33;2.00;;;;;;;;4869265;29;45763;-86
2021/11/28 09:49:41;;;;;;;;;5.00;2.33;;;;;;;;4870536;29;45840;-86
2021/11/28 09:52:08;;;;;;;;;2.67;2.00;;;;;;;;4884185;29;45422;-85
2021/11/28 09:54:39;;;;;;;;;2.33;2.33;;;;;;;;4869015;29;45334;-85
2021/11/28 09:57:05;;;;;;;;;2.00;2.00;;;;;;;;4868815;29;44956;-85
2021/11/28 09:59:30;;;;;;;;;2.00;1.00;;;;;;;;4869350;29;46012;-85
2021/11/28 10:01:55;;;;;;;;;1.33;1.33;;;;;;;;4888914;29;45436;-85
2021/11/28 10:04:21;;;;;;;;;2.67;1.67;;;;;;;;4871260;29;44779;-85
2021/11/28 10:06:47;;;;;;;;;2.00;2.00;;;;;;;;4868623;29;45434;-85
2021/11/28 10:09:13;;;;;;;;;3.00;3.00;;;;;;;;4869624;29;45411;-85
2021/11/28 10:11:42;;;;;;;;;3.00;3.00;;;;;;;;4885422;29;45720;-85
2021/11/28 10:14:09;;;;;;;;;5.33;3.00;;;;;;;;4885740;29;45458;-86
2021/11/28 10:16:35;;;;;;;;;4.33;3.00;;;;;;;;4885698;29;45462;-86
2021/11/28 10:19:01;;;;;;;;;0.67;0.67;;;;;;;;4884799;29;45442;-85
2021/11/28 10:21:27;;;;;;;;;2.00;2.00;;;;;;;;4884616;29;46534;-85
2021/11/28 10:24:28;;;;;;;;;2.00;1.00;;;;;;;;4868320;29;46052;-86
2021/11/28 10:29:56;;;;;;;;;4.33;2.00;;;;;;;;4887690;29;45896;-84
2021/11/28 10:32:22;;;;;;;;;3.33;3.33;;;;;;;;4869945;29;47240;-84
2021/11/28 10:34:49;;;;;;;;;2.33;2.33;;;;;;;;4869022;29;45402;-85
2021/11/28 10:37:16;;;;;;;;;3.33;3.33;;;;;;;;4886589;29;45441;-84
2021/11/28 10:39:54;;;;;;;;;3.00;3.00;;;;;;;;4887749;29;45409;-84
2021/11/28 10:42:21;;;;;;;;;2.67;2.67;;;;;;;;4870251;29;47280;-84
2021/11/28 10:45:25;;;;;;;;;1.00;1.00;;;;;;;;4869998;29;45798;-84
2021/11/28 10:47:54;;;;;;;;;2.67;2.00;;;;;;;;4811089;29;45820;-86
2021/11/28 10:50:22;;;;;;;;;4.33;3.67;;;;;;;;4796497;29;45725;-84
2021/11/28 10:52:51;;;;;;;;;2.00;2.00;;;;;;;;4798329;29;48396;-85
2021/11/28 10:55:17;;;;;;;;;4.67;4.67;;;;;;;;4813498;29;45424;-84
2021/11/28 10:57:42;;;;;;;;;2.00;2.00;;;;;;;;4798239;29;45448;-84
2021/11/28 11:00:08;;;;;;;;;6.33;2.00;;;;;;;;4813325;29;45809;-85
2021/11/28 11:02:36;;;;;;;;;3.00;2.00;;;;;;;;4813301;29;46136;-85
2021/11/28 11:05:02;;;;;;;;;3.33;3.33;;;;;;;;4798002;29;45348;-84
2021/11/28 11:10:30;;;;;;;;;5.00;4.33;;;;;;;;4812570;29;45441;-84
2021/11/28 11:12:55;;;;;;;;;3.00;3.00;;;;;;;;4827582;29;47558;-84
2021/11/28 11:15:38;;;;;;;;;3.00;1.67;;;;;;;;4812338;29;45449;-84
2021/11/28 11:18:06;;;;;;;;;3.33;3.33;;;;;;;;4812207;29;45417;-84
2021/11/28 11:20:32;;;;;;;;;5.00;2.00;;;;;;;;4868764;29;45411;-84
2021/11/28 11:22:58;;;;;;;;;1.33;1.00;;;;;;;;4853288;29;47661;-84
2021/11/28 11:25:33;;;;;;;;;2.00;1.00;;;;;;;;4853557;29;45397;-84
2021/11/28 11:28:13;;;;;;;;;5.00;2.00;;;;;;;;4853407;29;45694;-84
2021/11/28 11:30:40;;;;;;;;;1.67;1.67;;;;;;;;4853625;29;45493;-84
2021/11/28 11:33:06;;;;;;;;;2.00;2.00;;;;;;;;4854018;29;47348;-84
2021/11/28 11:35:33;;;;;;;;;2.00;1.67;;;;;;;;4870106;29;45376;-84
2021/11/28 11:38:03;;;;;;;;;1.00;1.00;;;;;;;;4854065;29;45345;-84
2021/11/28 11:40:29;;;;;;;;;3.00;3.00;;;;;;;;4853011;29;45408;-84
2021/11/28 11:42:54;;;;;;;;;2.00;2.00;;;;;;;;4852448;29;47334;-84
2021/11/28 11:45:21;;;;;;;;;1.33;1.33;;;;;;;;4851577;29;45490;-84
2021/11/28 11:47:46;;;;;;;;;2.00;2.00;;;;;;;;4853342;29;44801;-85
2021/11/28 11:50:14;;;;;;;;;2.33;2.33;;;;;;;;4852248;29;45614;-85
2021/11/28 11:52:39;;;;;;;;;1.33;1.33;;;;;;;;4867666;29;45572;-85
2021/11/28 11:55:09;;;;;;;;;2.00;2.00;;;;;;;;4869997;29;45364;-85
2021/11/28 11:57:51;;;;;;;;;1.00;1.00;;;;;;;;4855859;29;45416;-85
2021/11/28 12:00:32;;;;;;;;;2.33;2.33;;;;;;;;4856283;29;45395;-84
2021/11/28 12:02:57;;;;;;;;;3.67;2.33;;;;;;;;4872023;29;48092;-85
2021/11/28 12:05:35;;;;;;;;;5.00;3.00;;;;;;;;4873161;29;45288;-85
2021/11/28 12:08:27;;;;;;;;;3.33;2.00;;;;;;;;4855423;29;45459;-85
2021/11/28 12:10:53;;;;;;;;;1.67;1.67;;;;;;;;4852895;29;45400;-85
2021/11/28 12:13:25;;;;;;;;;3.00;2.00;;;;;;;;4851934;29;48530;-85
2021/11/28 12:15:51;;;;;;;;;2.00;2.00;;;;;;;;4852672;29;45380;-85
2021/11/28 12:18:35;;;;;;;;;2.00;2.00;;;;;;;;4857881;29;45410;-85
2021/11/28 12:21:17;;;;;;;;;2.00;2.00;;;;;;;;4855641;29;45372;-85
2021/11/28 12:23:43;;;;;;;;;1.33;0.33;;;;;;;;4855533;29;47392;-85
2021/11/28 12:26:26;;;;;;;;;3.00;2.00;;;;;;;;4876146;29;45511;-85
2021/11/28 12:29:10;;;;;;;;;2.00;2.00;;;;;;;;4876301;29;44814;-84
2021/11/28 12:31:46;;;;;;;;;2.00;2.00;;;;;;;;4856881;29;45684;-85
2021/11/28 12:34:12;;;;;;;;;1.00;1.00;;;;;;;;4871293;29;45079;-85
2021/11/28 12:36:42;;;;;;;;;2.00;2.00;;;;;;;;4855014;29;45547;-85
2021/11/28 12:39:30;;;;;;;;;0.67;0.67;;;;;;;;4871686;29;45390;-86
2021/11/28 12:42:06;;;;;;;;;2.00;2.00;;;;;;;;4854092;29;45276;-86
2021/11/28 12:44:33;;;;;;;;;2.67;1.00;;;;;;;;4871321;29;46933;-86
2021/11/28 12:47:00;;;;;;;;;3.00;2.00;;;;;;;;4871803;29;44937;-85
2021/11/28 12:49:32;;;;;;;;;1.00;1.00;;;;;;;;4855113;29;45488;-86
2021/11/28 12:52:17;;;;;;;;;1.67;1.67;;;;;;;;4850712;29;45425;-86
2021/11/28 12:55:09;;;;;;;;;4.33;1.33;;;;;;;;4850282;29;47663;-85
2021/11/28 12:57:44;;;;;;;;;2.33;2.33;;;;;;;;4841539;29;45388;-85
2021/11/28 13:00:25;;;;;;;;;1.00;1.00;;;;;;;;4849238;29;45726;-85
2021/11/28 13:02:50;;;;;;;;;1.33;1.00;;;;;;;;4851457;29;45297;-85
2021/11/28 13:05:35;;;;;;;;;1.33;1.33;;;;;;;;4854374;29;45989;-85
2021/11/28 13:08:00;;;;;;;;;2.33;2.33;;;;;;;;4865993;29;44869;-85
2021/11/28 13:10:27;;;;;;;;;2.00;2.00;;;;;;;;4870977;29;45714;-85
2021/11/28 13:13:02;;;;;;;;;1.00;1.00;;;;;;;;4870045;29;45434;-86
2021/11/28 13:15:28;;;;;;;;;2.67;2.67;;;;;;;;4871134;29;45581;-86
2021/11/28 13:17:55;;;;;;;;;2.00;1.00;;;;;;;;4868799;29;45348;-86
2021/11/28 13:20:20;;;;;;;;;1.00;1.00;;;;;;;;4851866;29;45445;-85
2021/11/28 13:22:46;;;;;;;;;5.00;2.00;;;;;;;;4851325;29;45687;-84
2021/11/28 13:28:16;;;;;;;;;2.00;1.33;;;;;;;;4867619;29;45296;-85
2021/11/28 13:30:46;;;;;;;;;3.33;1.00;;;;;;;;4852195;29;45412;-85
2021/11/28 13:33:13;;;;;;;;;2.00;2.00;;;;;;;;4852239;29;45441;-85
2021/11/28 13:35:39;;;;;;;;;2.00;2.00;;;;;;;;4852145;29;47133;-84
2021/11/28 13:38:33;;;;;;;;;0.00;0.00;;;;;;;;4854542;29;45365;-85
2021/11/28 13:41:11;;;;;;;;;1.00;1.00;;;;;;;;4871549;29;45343;-85
2021/11/28 13:43:36;;;;;;;;;0.33;0.00;;;;;;;;4856190;29;45359;-85
2021/11/28 13:46:02;;;;;;;;;3.00;1.00;;;;;;;;4854735;29;47538;-84
2021/11/28 13:48:38;;;;;;;;;1.00;1.00;;;;;;;;4853548;29;45494;-85
2021/11/28 13:54:38;;;;;;;;;2.00;2.00;;;;;;;;4850980;29;45394;-85
2021/11/28 13:57:03;;;;;;;;;2.33;2.00;;;;;;;;4834643;29;47337;-85
2021/11/28 13:59:29;;;;;;;;;3.00;1.67;;;;;;;;4834801;29;45535;-85
2021/11/28 14:02:07;;;;;;;;;2.00;2.00;;;;;;;;4834781;29;45503;-85
2021/11/28 14:04:34;;;;;;;;;1.67;1.00;;;;;;;;4834812;29;45350;-85
2021/11/28 14:07:00;;;;;;;;;2.00;2.00;;;;;;;;4852310;29;46749;-84
2021/11/28 14:09:25;;;;;;;;;2.33;2.00;;;;;;;;4835473;29;45725;-85
2021/11/28 14:11:51;;;;;;;;;1.00;1.00;;;;;;;;4834353;29;45729;-85
2021/11/28 14:14:18;;;;;;;;;2.00;1.33;;;;;;;;4851348;29;45506;-85
2021/11/28 14:16:50;;;;;;;;;1.00;0.67;;;;;;;;4849377;29;46819;-85
2021/11/28 14:19:36;;;;;;;;;2.67;2.00;;;;;;;;4833744;29;45371;-85
2021/11/28 14:22:01;;;;;;;;;2.00;1.00;;;;;;;;4833690;29;45378;-85
2021/11/28 14:24:31;;;;;;;;;2.00;2.00;;;;;;;;4849432;29;45614;-85
2021/11/28 14:27:17;;;;;;;;;1.00;1.00;;;;;;;;4836666;29;47179;-85
2021/11/28 14:29:43;;;;;;;;;1.67;1.67;;;;;;;;4837947;29;45764;-85
2021/11/28 14:32:10;;;;;;;;;1.00;1.00;;;;;;;;4853526;29;45323;-85
2021/11/28 14:34:35;;;;;;;;;1.00;0.00;;;;;;;;4837313;29;44869;-85
2021/11/28 14:37:17;;;;;;;;;1.00;1.00;;;;;;;;4853396;29;46803;-85
2021/11/28 14:39:43;;;;;;;;;1.33;1.00;;;;;;;;4838141;29;45698;-86
2021/11/28 14:42:13;;;;;;;;;1.00;1.00;;;;;;;;4837504;29;45516;-85
2021/11/28 14:44:43;;;;;;;;;0.00;0.00;;;;;;;;4838254;29;45602;-85
2021/11/28 14:47:18;;;;;;;;;4.00;2.00;;;;;;;;4837698;29;48418;-85
2021/11/28 14:49:45;;;;;;;;;2.00;2.00;;;;;;;;4854387;29;45328;-85
2021/11/28 14:52:13;;;;;;;;;1.33;1.33;;;;;;;;4857410;29;45369;-85
2021/11/28 14:54:39;;;;;;;;;1.67;1.00;;;;;;;;4872578;29;45431;-85
2021/11/28 14:57:07;;;;;;;;;2.67;2.33;;;;;;;;4870777;29;47585;-85
2021/11/28 14:59:38;;;;;;;;;1.33;1.33;;;;;;;;4871366;29;45296;-85
2021/11/28 15:02:08;;;;;;;;;3.00;3.00;;;;;;;;4869281;29;45788;-84
2021/11/28 15:04:36;;;;;;;;;5.00;1.00;;;;;;;;4869378;29;44853;-84
2021/11/28 15:07:14;;;;;;;;;2.00;2.00;;;;;;;;4869151;29;47172;-85
2021/11/28 15:09:40;;;;;;;;;2.67;0.67;;;;;;;;4870261;29;45845;-85
2021/11/28 15:12:20;;;;;;;;;0.33;0.33;;;;;;;;4869389;29;45471;-85
2021/11/28 15:14:47;;;;;;;;;0.00;0.00;;;;;;;;4872097;29;45450;-85
2021/11/28 15:17:12;;;;;;;;;1.00;1.00;;;;;;;;4872940;29;47529;-86
2021/11/28 15:19:37;;;;;;;;;2.00;2.00;;;;;;;;4868714;29;45383;-86
2021/11/28 15:22:02;;;;;;;;;4.00;0.00;;;;;;;;4872384;29;44769;-85
2021/11/28 15:24:28;;;;;;;;;1.00;0.00;;;;;;;;4886426;29;45546;-85